Time;durP1;ratioP1;P1;durP2;ratioP2;P2;SDS_P1;SDS_P2;PMS_P1;PMS_P2;Temp;Humidity;BMP_temperature;BMP_pressure;BME280_temperature;BME280_humidity;BME280_pressure;Samples;Min_cycle;Max_cycle;Signal;HPM_P1;HPM_P2
2020/12/19 00:05:44;;;;;;;1999.90;999.90;;;;;;;3.75;76.50;101803.66;15873115;28;20067;-62
2020/12/19 00:13:17;;;;;;;1999.90;999.90;;;;;;;3.67;76.50;101798.66;15854386;28;20581;-62
2020/12/19 00:20:50;;;;;;;1999.90;999.90;;;;;;;3.79;76.13;101799.31;15853832;28;20156;-62
2020/12/19 00:28:24;;;;;;;1999.90;999.90;;;;;;;3.67;76.27;101785.66;15869330;28;20039;-59
2020/12/19 00:35:56;;;;;;;;;;;;;;;3.70;76.09;101778.78;15870710;28;20188;-61
2020/12/19 00:43:29;;;;;;;1999.90;999.90;;;;;;;3.43;76.97;101771.31;15853266;28;19920;-62
2020/12/19 00:51:02;;;;;;;1999.90;999.90;;;;;;;3.39;76.52;101769.34;15835249;28;20082;-62
2020/12/19 00:58:35;;;;;;;1999.90;999.90;;;;;;;3.38;76.72;101771.28;15870252;28;20043;-60
2020/12/19 01:06:09;;;;;;;1999.90;999.90;;;;;;;3.31;76.56;101762.38;15851277;28;20067;-61
2020/12/19 01:13:43;;;;;;;1999.90;999.90;;;;;;;3.16;77.29;101770.50;15869364;28;20100;-61
2020/12/19 01:21:18;;;;;;;1999.90;999.90;;;;;;;3.25;76.67;101760.66;15868982;28;20036;-61
2020/12/19 01:28:52;;;;;;;1999.90;999.90;;;;;;;3.23;76.74;101762.00;15868626;28;20123;-62
2020/12/19 01:36:24;;;;;;;;;;;;;;;3.26;76.63;101754.06;15868340;28;20119;-61
2020/12/19 01:43:59;;;;;;;1999.90;999.90;;;;;;;3.34;76.12;101750.00;15850927;28;20331;-61
2020/12/19 01:51:32;;;;;;;1999.90;999.90;;;;;;;3.36;76.31;101737.63;15882751;28;20386;-62
2020/12/19 01:59:06;;;;;;;1999.90;999.90;;;;;;;3.11;77.46;101737.31;15889271;28;20120;-62
2020/12/19 02:06:40;;;;;;;1999.90;999.90;;;;;;;3.17;77.16;101723.34;15888639;28;20122;-61
2020/12/19 02:14:14;;;;;;;1999.90;999.90;;;;;;;3.15;77.24;101714.50;15888327;28;20119;-60
2020/12/19 02:21:46;;;;;;;1999.90;999.90;;;;;;;3.30;76.58;101715.72;15870021;28;20134;-61
2020/12/19 02:29:21;;;;;;;1999.90;999.90;;;;;;;3.43;76.11;101707.84;15879351;27;20051;-60
2020/12/19 02:36:54;;;;;;;1999.90;999.90;;;;;;;3.42;76.32;101705.38;15869595;28;20043;-62
2020/12/19 02:44:27;;;;;;;1999.90;999.90;;;;;;;3.40;76.24;101691.84;15869386;28;20452;-61
2020/12/19 02:52:00;;;;;;;1999.90;999.90;;;;;;;3.30;76.63;101688.97;15868956;28;20044;-61
2020/12/19 02:59:34;;;;;;;1999.90;999.90;;;;;;;3.36;76.23;101682.44;15867746;28;20142;-62
2020/12/19 03:07:06;;;;;;;1999.90;999.90;;;;;;;3.30;76.88;101680.69;15858327;28;20088;-62
2020/12/19 03:14:41;;;;;;;1999.90;999.90;;;;;;;3.27;77.83;101667.44;15858479;28;20155;-61
2020/12/19 03:22:13;;;;;;;1999.90;999.90;;;;;;;3.53;76.79;101664.91;15857657;28;20180;-62
2020/12/19 03:29:47;;;;;;;1999.90;999.90;;;;;;;3.49;76.66;101667.38;15856972;28;20039;-62
2020/12/19 03:37:20;;;;;;;1999.90;999.90;;;;;;;3.60;76.60;101651.72;15874682;28;20044;-62
2020/12/19 03:44:53;;;;;;;1999.90;999.90;;;;;;;3.58;76.26;101664.97;15874635;28;20576;-63
2020/12/19 03:52:26;;;;;;;1999.90;999.90;;;;;;;3.46;76.85;101645.81;15842432;28;20413;-63
2020/12/19 03:59:59;;;;;;;1999.90;999.90;;;;;;;3.50;76.72;101646.94;15809914;28;20052;-62
2020/12/19 04:07:31;;;;;;;1999.90;999.90;;;;;;;3.48;77.40;101632.59;15808908;28;20048;-62
2020/12/19 04:15:08;;;;;;;1999.90;999.90;;;;;;;3.41;77.56;101640.25;15791083;28;20040;-63
2020/12/19 04:22:40;;;;;;;1999.90;999.90;;;;;;;3.54;77.32;101631.50;15844527;28;20031;-62
2020/12/19 04:30:14;;;;;;;1999.90;999.90;;;;;;;3.42;77.54;101630.88;15871667;28;20040;-62
2020/12/19 04:37:46;;;;;;;1999.90;999.90;;;;;;;3.46;77.20;101632.84;15852542;28;20039;-62
2020/12/19 04:45:20;;;;;;;1999.90;999.90;;;;;;;3.62;77.02;101628.28;15835627;28;20036;-62
2020/12/19 04:52:52;;;;;;;1999.90;999.90;;;;;;;3.62;76.85;101631.03;15835289;28;20491;-63
2020/12/19 05:00:26;;;;;;;1999.90;999.90;;;;;;;3.62;77.53;101632.97;15851096;28;20122;-62
2020/12/19 05:07:58;;;;;;;1999.90;999.90;;;;;;;3.48;77.41;101646.38;15851042;28;20040;-61
2020/12/19 05:15:32;;;;;;;1999.90;999.90;;;;;;;3.46;77.81;101634.78;15869588;28;20146;-62
2020/12/19 05:23:08;;;;;;;1999.90;999.90;;;;;;;3.43;76.90;101636.13;15849676;28;20054;-62
2020/12/19 05:30:41;;;;;;;1999.90;999.90;;;;;;;3.14;78.19;101632.00;15849670;28;20036;-62
2020/12/19 05:38:14;;;;;;;1999.90;999.90;;;;;;;3.11;77.95;101632.50;15867952;28;20400;-62
2020/12/19 05:45:48;;;;;;;1999.90;999.90;;;;;;;2.84;78.48;101636.13;15867526;28;20127;-62
2020/12/19 05:53:22;;;;;;;1999.90;999.90;;;;;;;2.91;77.62;101630.38;15867454;28;20074;-62
2020/12/19 06:01:00;;;;;;;1999.90;999.90;;;;;;;2.68;78.29;101628.75;15848861;28;20135;-61
2020/12/19 06:08:39;;;;;;;1999.90;999.90;;;;;;;2.64;77.95;101638.66;15849776;28;20444;-63
2020/12/19 06:16:13;;;;;;;1999.90;999.90;;;;;;;2.30;78.38;101630.53;15848659;28;20039;-62
2020/12/19 06:23:47;;;;;;;1999.90;999.90;;;;;;;2.11;79.07;101631.09;15866939;28;20458;-62
2020/12/19 06:31:22;;;;;;;1999.90;999.90;;;;;;;2.29;78.42;101628.88;15866446;28;20046;-63
2020/12/19 06:38:57;;;;;;;1999.90;999.90;;;;;;;2.24;78.70;101630.69;15856750;28;20044;-62
2020/12/19 06:46:33;;;;;;;1999.90;999.90;;;;;;;2.61;76.97;101630.91;15860746;28;20051;-62
2020/12/19 06:54:06;;;;;;;1999.90;999.90;;;;;;;2.19;78.65;101634.22;15877573;28;20214;-63
2020/12/19 07:01:41;;;;;;;1999.90;999.90;;;;;;;2.16;78.73;101628.38;15876300;28;20432;-62
2020/12/19 07:09:28;;;;;;;1999.90;999.90;;;;;;;2.52;78.02;101626.94;15817010;28;20044;-62
2020/12/19 07:17:14;;;;;;;1999.90;999.90;;;;;;;2.28;78.59;101631.84;15873753;28;20043;-62
2020/12/19 07:24:49;;;;;;;1999.90;999.90;;;;;;;2.41;78.19;101619.63;15874129;28;20048;-61
2020/12/19 07:32:23;;;;;;;1999.90;999.90;;;;;;;2.18;80.46;101617.94;15872997;28;20104;-61
2020/12/19 07:40:05;;;;;;;1999.90;999.90;;;;;;;2.60;79.42;101596.13;15855802;28;20055;-62
2020/12/19 07:47:39;;;;;;;1999.90;999.90;;;;;;;2.69;80.28;101610.28;15872076;28;20043;-63
2020/12/19 07:55:12;;;;;;;1999.90;999.90;;;;;;;3.29;78.22;101612.81;15855989;28;20126;-63
2020/12/19 08:02:46;;;;;;;1999.90;999.90;;;;;;;3.33;78.22;101608.44;15872815;28;20492;-60
2020/12/19 08:10:19;;;;;;;1999.90;999.90;;;;;;;3.68;76.69;101621.72;15838362;28;20081;-60
2020/12/19 08:17:57;;;;;;;1999.90;999.90;;;;;;;3.90;75.60;101638.13;15873243;28;20048;-62
2020/12/19 08:25:31;;;;;;;1999.90;999.90;;;;;;;3.92;75.56;101657.19;15872928;28;20054;-61
2020/12/19 08:33:06;;;;;;;1999.90;999.90;;;;;;;4.02;75.43;101640.69;15871760;28;20081;-61
2020/12/19 08:40:40;;;;;;;1999.90;999.90;;;;;;;4.35;74.16;101636.72;15871305;28;20052;-58
2020/12/19 08:48:21;;;;;;;1999.90;999.90;;;;;;;4.49;74.90;101634.31;15852724;28;20035;-62
2020/12/19 08:55:55;;;;;;;1999.90;999.90;;;;;;;4.90;73.62;101638.06;15870159;28;20043;-62
2020/12/19 09:03:31;;;;;;;1999.90;999.90;;;;;;;4.93;74.13;101631.97;15869885;28;20118;-62
2020/12/19 09:11:04;;;;;;;1999.90;999.90;;;;;;;5.51;72.64;101643.66;15857310;28;20134;-61
2020/12/19 09:18:39;;;;;;;1999.90;999.90;;;;;;;6.60;69.10;101641.25;15873009;28;20424;-58
2020/12/19 09:26:12;;;;;;;1999.90;999.90;;;;;;;8.11;63.65;101637.63;15850541;28;20040;-58
2020/12/19 09:33:45;;;;;;;1999.90;999.90;;;;;;;9.13;60.63;101631.63;15834279;28;20053;-57
2020/12/19 09:41:18;;;;;;;1999.90;999.90;;;;;;;10.50;56.60;101631.19;15850420;28;20040;-60
2020/12/19 09:48:52;;;;;;;1999.90;999.90;;;;;;;11.71;54.22;101634.28;15849423;28;20067;-61
2020/12/19 09:56:25;;;;;;;1999.90;999.90;;;;;;;11.78;53.03;101626.28;15866910;28;20066;-61
2020/12/19 10:03:59;;;;;;;1999.90;999.90;;;;;;;11.70;53.50;101627.88;15849282;28;20105;-64
2020/12/19 10:11:31;;;;;;;;;;;;;;;13.22;49.65;101641.50;15872555;28;20036;-61
2020/12/19 10:19:05;;;;;;;1999.90;999.90;;;;;;;12.02;52.40;101637.16;15879511;28;20316;-62
2020/12/19 10:26:39;;;;;;;1999.90;999.90;;;;;;;12.59;51.78;101635.25;15861490;28;20131;-62
2020/12/19 10:34:15;;;;;;;1999.90;999.90;;;;;;;10.61;56.00;101638.19;15860574;28;20096;-61
2020/12/19 10:41:48;;;;;;;1999.90;999.90;;;;;;;11.05;55.07;101630.31;15878069;27;20043;-62
2020/12/19 10:49:22;;;;;;;1999.90;999.90;;;;;;;11.46;54.72;101628.19;15874503;28;20031;-62
2020/12/19 10:56:55;;;;;;;1999.90;999.90;;;;;;;11.51;53.60;101614.09;15876160;28;20134;-61
2020/12/19 11:04:28;;;;;;;1999.90;999.90;;;;;;;13.39;49.48;101615.47;15877940;27;20052;-62
2020/12/19 11:12:01;;;;;;;;;;;;;;;12.74;50.80;101617.19;15825191;27;20066;-62
2020/12/19 11:19:34;;;;;;;1999.90;999.90;;;;;;;14.64;47.03;101605.69;15825879;28;20376;-60
2020/12/19 11:27:07;;;;;;;1999.90;999.90;;;;;;;14.49;46.86;101611.09;15854783;28;20051;-61
2020/12/19 11:34:40;;;;;;;1999.90;999.90;;;;;;;15.28;44.89;101611.03;15856679;28;20064;-61
2020/12/19 11:42:13;;;;;;;1999.90;999.90;;;;;;;15.20;45.09;101588.59;15873580;28;20054;-62
2020/12/19 11:49:46;;;;;;;1999.90;999.90;;;;;;;13.81;47.89;101580.91;15872955;28;20156;-62
2020/12/19 11:57:19;;;;;;;1999.90;999.90;;;;;;;14.68;45.15;101570.13;15872839;28;20554;-62
2020/12/19 12:04:55;;;;;;;1999.90;999.90;;;;;;;12.43;51.24;101573.28;15914851;27;20039;-62
2020/12/19 12:12:28;;;;;;;1999.90;999.90;;;;;;;18.59;38.98;101577.53;15936256;27;20137;-62
2020/12/19 12:20:03;;;;;;;1999.90;999.90;;;;;;;19.07;37.49;101561.28;15934528;27;20058;-62
2020/12/19 12:27:36;;;;;;;1999.90;999.90;;;;;;;16.19;42.23;101579.34;15934176;27;20521;-61
2020/12/19 12:35:09;;;;;;;1999.90;999.90;;;;;;;17.26;40.20;101556.22;15901068;27;20512;-61
2020/12/19 12:42:42;;;;;;;1999.90;999.90;;;;;;;20.43;34.91;101565.59;15851358;28;20078;-62
2020/12/19 12:50:15;;;;;;;1999.90;999.90;;;;;;;19.21;37.31;101539.78;15869698;28;20101;-62
2020/12/19 12:57:50;;;;;;;1999.90;999.90;;;;;;;14.71;45.04;101551.81;15868452;28;20040;-62
2020/12/19 13:05:23;;;;;;;;;;;;;;;12.32;51.91;101548.72;15834192;28;20048;-62
2020/12/19 13:12:55;;;;;;;1999.90;999.90;;;;;;;11.69;54.01;101545.13;15868957;28;19919;-61
2020/12/19 13:20:29;;;;;;;1999.90;999.90;;;;;;;12.17;52.53;101546.34;15867702;28;20424;-61
2020/12/19 13:28:02;;;;;;;1999.90;999.90;;;;;;;11.78;53.70;101554.41;15868619;28;20095;-61
2020/12/19 13:35:35;;;;;;;1999.90;999.90;;;;;;;10.56;57.12;101546.22;15868200;28;20051;-62
2020/12/19 13:43:08;;;;;;;1999.90;999.90;;;;;;;10.47;57.98;101541.69;15849093;28;20107;-62
2020/12/19 13:50:41;;;;;;;1999.90;999.90;;;;;;;10.20;59.17;101539.72;15866924;28;20094;-62
2020/12/19 13:58:14;;;;;;;1999.90;999.90;;;;;;;10.28;59.05;101531.47;15849315;28;20116;-61
2020/12/19 14:05:49;;;;;;;1999.90;999.90;;;;;;;10.25;59.21;101534.91;15849209;28;20515;-62
2020/12/19 14:13:21;;;;;;;1999.90;999.90;;;;;;;10.26;58.97;101544.91;15849378;28;20175;-62
2020/12/19 14:20:57;;;;;;;1999.90;999.90;;;;;;;9.89;60.62;101550.66;15849713;28;20089;-62
2020/12/19 14:28:30;;;;;;;1999.90;999.90;;;;;;;9.90;60.20;101546.72;15848073;28;20393;-62
2020/12/19 14:36:04;;;;;;;1999.90;999.90;;;;;;;9.61;61.42;101553.41;15866839;28;20123;-61
2020/12/19 14:43:37;;;;;;;1999.90;999.90;;;;;;;9.70;61.03;101546.00;15865481;28;20388;-63
2020/12/19 14:51:11;;;;;;;1999.90;999.90;;;;;;;9.59;61.30;101544.53;15847671;28;20047;-62
2020/12/19 14:58:44;;;;;;;1999.90;999.90;;;;;;;9.49;61.72;101551.13;15872329;28;20108;-62
2020/12/19 15:06:20;;;;;;;1999.90;999.90;;;;;;;9.30;62.48;101543.94;15858563;28;20069;-61
2020/12/19 15:13:53;;;;;;;1999.90;999.90;;;;;;;9.02;63.05;101543.81;15875831;28;20077;-62
2020/12/19 15:21:27;;;;;;;1999.90;999.90;;;;;;;8.58;64.41;101541.41;15875831;28;20545;-61
2020/12/19 15:29:00;;;;;;;1999.90;999.90;;;;;;;8.41;65.09;101541.09;15840223;28;20069;-62
2020/12/19 15:36:33;;;;;;;1999.90;999.90;;;;;;;8.28;65.37;101546.22;15875250;28;20047;-62
2020/12/19 15:44:06;;;;;;;1999.90;999.90;;;;;;;7.90;67.01;101533.34;15856367;28;20381;-62
2020/12/19 15:51:40;;;;;;;1999.90;999.90;;;;;;;7.76;67.63;101545.16;15874301;28;20043;-61
2020/12/19 15:59:12;;;;;;;1999.90;999.90;;;;;;;7.39;68.60;101537.47;15851399;28;20036;-62
2020/12/19 16:06:46;;;;;;;1999.90;999.90;;;;;;;7.36;68.57;101534.44;15864960;28;20084;-61
2020/12/19 16:14:19;;;;;;;1999.90;999.90;;;;;;;6.98;69.27;101533.38;15852876;28;20047;-62
2020/12/19 16:21:52;;;;;;;1999.90;999.90;;;;;;;7.06;70.18;101558.56;15863252;28;20153;-62
2020/12/19 16:29:25;;;;;;;1999.90;999.90;;;;;;;7.26;69.14;101565.09;15866337;28;20122;-62
2020/12/19 16:37:03;;;;;;;1999.90;999.90;;;;;;;7.36;68.82;101559.44;15839811;28;20063;-62
2020/12/19 16:44:36;;;;;;;1999.90;999.90;;;;;;;7.43;68.04;101562.72;15866952;28;20081;-62
2020/12/19 16:52:10;;;;;;;1999.90;999.90;;;;;;;7.19;68.23;101562.63;15848968;28;20103;-61
2020/12/19 16:59:42;;;;;;;1999.90;999.90;;;;;;;7.40;67.86;101560.50;15868775;28;20078;-61
2020/12/19 17:07:16;;;;;;;1999.90;999.90;;;;;;;7.20;68.52;101556.81;15847936;28;20495;-61
2020/12/19 17:14:51;;;;;;;1999.90;999.90;;;;;;;6.92;69.49;101560.34;15844255;28;20122;-61
2020/12/19 17:22:25;;;;;;;1999.90;999.90;;;;;;;7.10;68.41;101559.66;15848142;28;20043;-62
2020/12/19 17:29:57;;;;;;;1999.90;999.90;;;;;;;7.02;69.03;101570.56;15864967;28;20075;-62
2020/12/19 17:37:31;;;;;;;1999.90;999.90;;;;;;;7.04;68.20;101574.69;15829041;28;20515;-61
2020/12/19 17:45:04;;;;;;;1999.90;999.90;;;;;;;6.75;69.56;101580.13;15845187;28;20370;-61
2020/12/19 17:52:37;;;;;;;1999.90;999.90;;;;;;;6.65;69.54;101583.81;15863478;28;20040;-61
2020/12/19 18:00:10;;;;;;;1999.90;999.90;;;;;;;6.50;69.53;101594.16;15862404;28;20048;-62
2020/12/19 18:07:43;;;;;;;1999.90;999.90;;;;;;;6.69;68.79;101589.63;15862313;28;20043;-62
2020/12/19 18:15:18;;;;;;;1999.90;999.90;;;;;;;5.89;71.07;101594.31;15853764;28;20062;-62
2020/12/19 18:22:52;;;;;;;1999.90;999.90;;;;;;;6.22;69.88;101590.09;15864252;28;20052;-61
2020/12/19 18:30:25;;;;;;;1999.90;999.90;;;;;;;6.16;70.53;101585.72;15828250;28;20063;-60
2020/12/19 18:37:58;;;;;;;1999.90;999.90;;;;;;;6.15;70.92;101589.56;15855821;28;20134;-62
2020/12/19 18:45:31;;;;;;;1999.90;999.90;;;;;;;5.84;71.49;101581.34;15877714;28;20047;-62
2020/12/19 18:53:05;;;;;;;1999.90;999.90;;;;;;;6.11;70.10;101589.31;15876743;28;20040;-62
2020/12/19 19:00:38;;;;;;;1999.90;999.90;;;;;;;5.86;71.13;101601.25;15877037;28;20047;-62
2020/12/19 19:08:11;;;;;;;1999.90;999.90;;;;;;;6.01;70.61;101597.66;15857833;28;20047;-60
2020/12/19 19:15:45;;;;;;;1999.90;999.90;;;;;;;5.93;71.48;101612.06;15857727;28;20048;-64
2020/12/19 19:23:18;;;;;;;;;;;;;;;6.39;69.05;101600.88;15840864;28;20040;-61
2020/12/19 19:30:51;;;;;;;1999.90;999.90;;;;;;;6.27;68.34;101599.25;15848378;28;20038;-59
2020/12/19 19:38:24;;;;;;;1999.90;999.90;;;;;;;5.94;69.04;101603.50;15869716;28;20058;-62
2020/12/19 19:45:57;;;;;;;1999.90;999.90;;;;;;;5.70;69.20;101596.84;15851251;28;20127;-62
2020/12/19 19:53:30;;;;;;;1999.90;999.90;;;;;;;5.73;69.42;101597.13;15871257;28;20128;-63
2020/12/19 20:01:04;;;;;;;1999.90;999.90;;;;;;;5.34;70.91;101605.19;15849636;28;20071;-62
2020/12/19 20:08:39;;;;;;;1999.90;999.90;;;;;;;5.21;71.66;101601.03;15846260;28;20063;-62
2020/12/19 20:16:12;;;;;;;1999.90;999.90;;;;;;;5.44;70.92;101604.34;15870151;28;20079;-60
2020/12/19 20:23:45;;;;;;;1999.90;999.90;;;;;;;5.25;71.19;101598.53;15849252;28;20047;-61
2020/12/19 20:31:20;;;;;;;1999.90;999.90;;;;;;;4.92;72.35;101614.53;15785169;28;20167;-61
2020/12/19 20:38:53;;;;;;;1999.90;999.90;;;;;;;5.37;70.55;101617.63;15831337;28;20048;-62
2020/12/19 20:46:26;;;;;;;1999.90;999.90;;;;;;;5.10;71.44;101609.56;15775653;28;20171;-60
2020/12/19 20:54:00;;;;;;;1999.90;999.90;;;;;;;5.24;71.16;101620.97;15849039;28;20047;-61
2020/12/19 21:01:34;;;;;;;1999.90;999.90;;;;;;;5.05;71.07;101613.19;15865715;28;20505;-62
2020/12/19 21:09:08;;;;;;;1999.90;999.90;;;;;;;5.07;71.32;101597.13;15810331;28;20040;-57
2020/12/19 21:16:42;;;;;;;1999.90;999.90;;;;;;;5.11;70.64;101614.88;15853555;27;20093;-61
2020/12/19 21:24:17;;;;;;;1999.90;999.90;;;;;;;5.09;71.11;101617.03;15855884;28;20126;-60
2020/12/19 21:31:49;;;;;;;1999.90;999.90;;;;;;;4.97;71.03;101605.41;15862782;28;20100;-63
2020/12/19 21:39:23;;;;;;;1999.90;999.90;;;;;;;5.13;70.55;101601.56;15844355;28;20071;-62
2020/12/19 21:46:57;;;;;;;1999.90;999.90;;;;;;;5.02;71.15;101599.06;15847017;28;20138;-61
2020/12/19 21:54:30;;;;;;;1999.90;999.90;;;;;;;4.99;71.67;101602.38;15863323;28;20134;-62
2020/12/19 22:02:03;;;;;;;1999.90;999.90;;;;;;;4.92;71.30;101608.19;15864198;28;20061;-61
2020/12/19 22:09:37;;;;;;;1999.90;999.90;;;;;;;4.84;71.20;101598.47;15870252;28;20134;-60
2020/12/19 22:17:09;;;;;;;1999.90;999.90;;;;;;;4.82;71.35;101600.69;15902045;27;20126;-60
2020/12/19 22:24:43;;;;;;;1999.90;999.90;;;;;;;4.92;71.39;101595.19;15879942;27;20047;-59
2020/12/19 22:32:16;;;;;;;1999.90;999.90;;;;;;;4.92;71.07;101614.53;15875735;28;20059;-61
2020/12/19 22:39:49;;;;;;;1999.90;999.90;;;;;;;5.09;70.86;101610.69;15870939;27;20104;-61
2020/12/19 22:47:22;;;;;;;1999.90;999.90;;;;;;;4.92;70.38;101627.53;15839831;28;20036;-60
2020/12/19 22:54:56;;;;;;;1999.90;999.90;;;;;;;5.02;70.01;101633.09;15855096;28;20460;-60
2020/12/19 23:02:33;;;;;;;1999.90;999.90;;;;;;;4.92;70.74;101633.06;15876101;28;20385;-60
2020/12/19 23:10:07;;;;;;;1999.90;999.90;;;;;;;5.08;70.56;101632.00;15857935;28;20032;-61
2020/12/19 23:17:40;;;;;;;1999.90;999.90;;;;;;;4.95;70.97;101648.28;15857638;28;20458;-62
2020/12/19 23:25:14;;;;;;;1999.90;999.90;;;;;;;5.12;69.64;101658.03;15816369;28;20075;-61
2020/12/19 23:32:47;;;;;;;1999.90;999.90;;;;;;;5.02;70.67;101657.16;15875665;28;20051;-62
2020/12/19 23:40:20;;;;;;;1999.90;999.90;;;;;;;5.02;69.99;101652.47;15848381;28;20135;-60
2020/12/19 23:47:55;;;;;;;1999.90;999.90;;;;;;;5.05;70.50;101651.09;15815061;28;20093;-61
2020/12/19 23:55:28;;;;;;;1999.90;999.90;;;;;;;5.32;70.33;101653.63;15855473;28;20493;-60
